Saint-Georges, Canada
Current Conditions -  °F | °C
As of 2:00 AM on Tuesday 21 Oct 2014 (Local Time) from CYQB Reporting Station
Broken Clouds Broken Clouds  
Wind Chill: 34°   Ceiling: 8900
Heat Index: 34°   Visibility: 15mi
Dew Point: 30°   Wind: 0mph
Humidity: 87%   Direction: NA
Pressure: 29.99"   Gusts: NA
Location:  46.12°N, 70.67°W
Report Text: CYQB 210600Z 00000KT 15SM BKN089 01/M01 A2999 RMK AC6 SLP158
Loading
Personal Weather Stations






























Interactive Weather Map
Tropical Storm Tracking
New forecast layout! Learn more

10-Day Weather Forecast

Advertisements
Track Severe Weather on mobile